createdAt,value
2022-10-02T00:02:03.935Z,70.02
2022-10-02T00:04:40.955Z,70.75
2022-10-02T00:07:12.596Z,69.68
2022-10-02T00:09:45.273Z,69.84
2022-10-02T00:12:17.316Z,70.03
2022-10-02T00:14:47.504Z,69.78
2022-10-02T00:17:19.866Z,69.23
2022-10-02T00:19:53.428Z,70.00
2022-10-02T00:22:48.553Z,70.13
2022-10-02T00:25:24.821Z,70.00
2022-10-02T00:28:09.390Z,70.68
2022-10-02T00:30:49.716Z,70.20
2022-10-02T00:33:24.997Z,70.69
2022-10-02T00:36:11.121Z,71.06
2022-10-02T00:38:48.771Z,70.35
2022-10-02T00:41:49.789Z,70.56
2022-10-02T00:44:32.043Z,71.17
2022-10-02T00:47:05.299Z,71.41
2022-10-02T00:49:59.672Z,71.99
2022-10-02T00:52:45.423Z,72.20
2022-10-02T00:55:29.987Z,72.01
2022-10-02T00:58:13.834Z,71.41
2022-10-02T01:00:51.884Z,71.38
2022-10-02T01:03:24.095Z,71.13
2022-10-02T01:05:52.652Z,71.04
2022-10-02T01:08:22.856Z,71.20
2022-10-02T01:10:51.090Z,70.90
2022-10-02T01:13:19.136Z,70.35
2022-10-02T01:15:52.896Z,70.48
2022-10-02T01:18:21.321Z,71.09
2022-10-02T01:20:53.592Z,71.38
2022-10-02T01:23:29.606Z,71.18
2022-10-02T01:25:59.607Z,71.56
2022-10-02T01:28:28.328Z,72.09
2022-10-02T01:31:02.572Z,71.61
2022-10-02T01:33:31.814Z,70.88
2022-10-02T01:36:00.247Z,71.06
2022-10-02T01:38:31.311Z,71.40
2022-10-02T01:41:00.679Z,71.85
2022-10-02T01:43:33.090Z,71.68
2022-10-02T01:46:21.086Z,71.54
2022-10-02T01:49:02.034Z,72.17
2022-10-02T01:51:55.121Z,72.48
2022-10-02T01:54:37.065Z,71.26
2022-10-02T01:57:14.437Z,71.86
2022-10-02T01:59:51.692Z,71.58
2022-10-02T02:02:27.605Z,71.61
2022-10-02T02:05:01.080Z,70.98
2022-10-02T02:07:35.840Z,70.85
2022-10-02T02:10:12.083Z,70.44
2022-10-02T02:12:44.302Z,70.73
2022-10-02T02:15:21.142Z,69.79
2022-10-02T02:17:55.058Z,70.57
2022-10-02T02:20:28.557Z,70.68
2022-10-02T02:23:04.907Z,70.52
2022-10-02T02:25:38.643Z,70.97
2022-10-02T02:28:12.498Z,70.27
2022-10-02T02:30:44.125Z,70.14
2022-10-02T02:33:18.373Z,69.65
2022-10-02T02:35:50.226Z,70.71
2022-10-02T02:38:24.916Z,70.67
2022-10-02T02:40:53.530Z,70.84
2022-10-02T02:43:27.977Z,71.03
2022-10-02T02:45:58.450Z,70.35
2022-10-02T02:48:29.247Z,70.60
2022-10-02T02:51:00.737Z,70.57
2022-10-02T02:53:34.516Z,70.25
2022-10-02T02:56:06.964Z,69.79
2022-10-02T02:58:44.890Z,70.90
2022-10-02T03:01:13.029Z,71.39
2022-10-02T03:03:41.026Z,70.80
2022-10-02T03:06:27.689Z,70.79
2022-10-02T03:08:56.085Z,70.87
2022-10-02T03:11:36.011Z,70.29
2022-10-02T03:14:19.180Z,70.26
2022-10-02T03:16:55.715Z,71.08
2022-10-02T03:19:35.948Z,71.74
2022-10-02T03:22:08.598Z,71.78
2022-10-02T03:24:42.125Z,71.76
2022-10-02T03:27:14.293Z,71.87
2022-10-02T03:29:48.408Z,71.54
2022-10-02T03:32:19.217Z,71.69
2022-10-02T03:34:49.629Z,70.88
2022-10-02T03:37:18.662Z,71.40
2022-10-02T03:39:47.371Z,70.97
2022-10-02T03:42:16.355Z,71.52
2022-10-02T03:44:45.683Z,72.04
2022-10-02T03:47:13.698Z,72.60
2022-10-02T03:49:41.816Z,71.57
2022-10-02T03:52:15.890Z,72.06
2022-10-02T03:54:44.424Z,71.47
2022-10-02T03:57:16.136Z,71.46
2022-10-02T03:59:49.959Z,71.83
2022-10-02T04:02:27.926Z,71.92
2022-10-02T04:05:02.301Z,72.34
2022-10-02T04:07:35.864Z,71.94
2022-10-02T04:10:30.898Z,71.18
2022-10-02T04:13:05.331Z,71.23
2022-10-02T04:15:46.365Z,70.53
2022-10-02T04:18:22.307Z,71.41
2022-10-02T04:20:55.447Z,71.39
2022-10-02T04:23:29.013Z,71.18
2022-10-02T04:26:02.394Z,71.03
2022-10-02T04:28:37.580Z,71.08
2022-10-02T04:31:32.084Z,71.11
2022-10-02T04:34:04.673Z,71.31
2022-10-02T04:36:43.490Z,71.89
2022-10-02T04:39:32.132Z,71.58
2022-10-02T04:42:21.200Z,71.95
2022-10-02T04:45:03.670Z,72.09
2022-10-02T04:48:00.927Z,72.58
2022-10-02T04:50:49.040Z,71.98
2022-10-02T04:53:26.319Z,72.61
2022-10-02T04:56:22.562Z,72.35
2022-10-02T04:59:13.363Z,72.30
2022-10-02T05:01:56.507Z,71.14
2022-10-02T05:04:59.274Z,72.12
2022-10-02T05:07:48.098Z,71.66
2022-10-02T05:10:35.724Z,71.05
2022-10-02T05:13:15.183Z,71.35
2022-10-02T05:15:54.367Z,71.00
2022-10-02T05:18:40.222Z,70.71
2022-10-02T05:21:30.058Z,70.10
2022-10-02T05:24:16.230Z,69.88
2022-10-02T05:27:09.608Z,70.14
2022-10-02T05:29:54.214Z,70.72
2022-10-02T05:32:38.278Z,70.54
2022-10-02T05:35:28.803Z,69.71
2022-10-02T05:38:11.867Z,69.86
2022-10-02T05:40:48.862Z,69.15
2022-10-02T05:43:26.523Z,69.11
2022-10-02T05:45:59.903Z,68.73
2022-10-02T05:48:30.750Z,68.68
2022-10-02T05:51:06.534Z,68.58
2022-10-02T05:53:40.832Z,68.48
2022-10-02T05:56:15.872Z,68.71
2022-10-02T05:58:51.586Z,67.81
2022-10-02T06:01:27.443Z,67.88
2022-10-02T06:04:02.623Z,68.03
2022-10-02T06:06:39.243Z,66.92
2022-10-02T06:09:16.524Z,67.60
2022-10-02T06:11:52.703Z,68.36
2022-10-02T06:14:27.873Z,68.18
2022-10-02T06:17:02.073Z,68.25
2022-10-02T06:19:35.111Z,68.03
2022-10-02T06:22:09.685Z,66.34
2022-10-02T06:24:46.281Z,65.88
2022-10-02T06:27:20.213Z,64.92
2022-10-02T06:29:55.303Z,64.26
2022-10-02T06:32:31.778Z,63.98
2022-10-02T06:35:00.017Z,64.04
2022-10-02T06:37:40.575Z,63.55
2022-10-02T06:40:32.225Z,64.06
2022-10-02T06:43:06.721Z,63.43
2022-10-02T06:45:46.337Z,64.89
2022-10-02T06:48:26.312Z,64.05
2022-10-02T06:51:06.823Z,63.94
2022-10-02T06:53:47.632Z,63.70
2022-10-02T06:56:33.459Z,63.57
2022-10-02T06:59:13.793Z,62.26
2022-10-02T07:01:56.359Z,54.58
2022-10-02T07:04:46.392Z,46.78
2022-10-02T07:07:32.089Z,43.82
2022-10-02T07:10:14.221Z,42.37
2022-10-02T07:13:06.242Z,48.49
2022-10-02T07:15:57.171Z,50.63
2022-10-02T07:18:42.780Z,45.73
2022-10-02T07:21:17.226Z,44.79
2022-10-02T07:23:53.450Z,51.29
2022-10-02T07:26:43.435Z,46.17
2022-10-02T07:29:24.088Z,49.32
2022-10-02T07:32:11.089Z,52.57
2022-10-02T07:34:45.552Z,50.63
2022-10-02T07:37:22.849Z,55.00
2022-10-02T07:40:10.040Z,55.55
2022-10-02T07:43:04.126Z,54.18
2022-10-02T07:45:38.860Z,46.67
2022-10-02T07:48:20.601Z,45.35
2022-10-02T07:51:00.154Z,38.82
2022-10-02T07:53:39.092Z,40.00
2022-10-02T07:56:10.773Z,38.62
2022-10-02T07:58:43.161Z,38.50
2022-10-02T08:01:19.489Z,38.87
2022-10-02T08:03:53.209Z,38.86
2022-10-02T08:06:21.671Z,38.17
2022-10-02T08:08:54.106Z,38.56
2022-10-02T08:11:30.200Z,38.19
2022-10-02T08:14:02.686Z,41.61
2022-10-02T08:16:38.029Z,40.47
2022-10-02T08:19:12.048Z,40.11
2022-10-02T08:21:44.435Z,41.64
2022-10-02T08:24:16.530Z,39.14
2022-10-02T08:26:51.092Z,39.10
2022-10-02T08:29:23.610Z,43.45
2022-10-02T08:31:54.150Z,42.76
2022-10-02T08:34:25.049Z,42.43
2022-10-02T08:37:15.522Z,41.32
2022-10-02T08:40:12.747Z,40.74
2022-10-02T08:43:24.975Z,40.76
2022-10-02T08:46:21.497Z,44.55
2022-10-02T08:49:16.831Z,44.69
2022-10-02T08:52:24.848Z,45.59
2022-10-02T08:55:19.715Z,44.75
2022-10-02T08:58:23.277Z,42.95
2022-10-02T09:01:06.758Z,42.48
2022-10-02T09:04:10.671Z,37.27
2022-10-02T09:07:13.817Z,43.32
2022-10-02T09:10:27.140Z,42.96
2022-10-02T09:13:29.215Z,36.23
2022-10-02T09:16:09.827Z,37.72
2022-10-02T09:18:52.110Z,34.58
2022-10-02T09:21:41.651Z,43.63
2022-10-02T09:24:51.330Z,41.24
2022-10-02T09:27:47.143Z,42.49
2022-10-02T09:30:28.140Z,42.25
2022-10-02T09:33:39.433Z,46.51
2022-10-02T09:36:30.947Z,43.24
2022-10-02T09:39:38.588Z,40.99
2022-10-02T09:42:44.952Z,40.55
2022-10-02T09:45:44.182Z,47.69
2022-10-02T09:49:06.259Z,49.73
2022-10-02T09:52:09.393Z,42.42
2022-10-02T09:55:18.361Z,45.03
2022-10-02T09:58:16.240Z,50.67
2022-10-02T10:01:18.412Z,50.49
2022-10-02T10:04:54.042Z,49.85
2022-10-02T10:07:45.007Z,49.49
2022-10-02T10:10:49.527Z,49.70
2022-10-02T10:13:44.509Z,48.28
2022-10-02T10:16:55.596Z,44.97
2022-10-02T10:19:55.644Z,45.13
2022-10-02T10:22:49.801Z,48.87
2022-10-02T10:25:50.503Z,49.40
2022-10-02T10:29:00.905Z,51.26
2022-10-02T10:32:14.861Z,50.99
2022-10-02T10:35:09.958Z,51.93
2022-10-02T10:38:12.127Z,52.93
2022-10-02T10:40:58.356Z,54.39
2022-10-02T10:44:04.107Z,54.60
2022-10-02T10:46:46.533Z,54.18
2022-10-02T10:49:38.732Z,56.69
2022-10-02T10:52:20.821Z,57.51
2022-10-02T10:55:03.822Z,57.31
2022-10-02T10:57:45.654Z,59.11
2022-10-02T11:00:21.357Z,60.32
2022-10-02T11:03:09.042Z,63.11
2022-10-02T11:06:15.251Z,62.75
2022-10-02T11:09:27.457Z,61.70
2022-10-02T11:12:21.731Z,56.73
2022-10-02T11:15:10.119Z,55.76
2022-10-02T11:18:01.386Z,56.71
2022-10-02T11:20:43.294Z,56.20
2022-10-02T11:23:46.980Z,55.46
2022-10-02T11:26:50.723Z,53.93
2022-10-02T11:29:55.065Z,54.75
2022-10-02T11:33:11.799Z,53.90
2022-10-02T11:35:57.746Z,55.59
2022-10-02T11:39:08.178Z,53.25
2022-10-02T11:41:56.703Z,49.91
2022-10-02T11:44:43.601Z,51.81
2022-10-02T11:47:47.794Z,51.08
2022-10-02T11:50:51.649Z,53.55
2022-10-02T11:53:43.358Z,52.08
2022-10-02T11:56:41.928Z,52.15
2022-10-02T11:59:30.571Z,52.40
2022-10-02T12:02:08.337Z,53.54
2022-10-02T12:04:54.480Z,54.29
2022-10-02T12:07:35.529Z,54.52
2022-10-02T12:10:27.465Z,56.09
2022-10-02T12:13:15.073Z,56.71
2022-10-02T12:15:51.803Z,57.17
2022-10-02T12:18:48.965Z,55.31
2022-10-02T12:21:48.858Z,54.14
2022-10-02T12:24:47.898Z,52.97
2022-10-02T12:27:32.751Z,53.09
2022-10-02T12:30:08.025Z,52.07
2022-10-02T12:32:53.774Z,52.49
2022-10-02T12:35:34.193Z,53.29
2022-10-02T12:38:16.318Z,53.61
2022-10-02T12:40:52.635Z,53.86
2022-10-02T12:43:46.154Z,54.60
2022-10-02T12:46:30.188Z,55.48
2022-10-02T12:49:27.814Z,56.46
2022-10-02T12:52:27.897Z,54.62
2022-10-02T12:55:26.289Z,52.92
2022-10-02T12:58:10.286Z,53.23
2022-10-02T13:01:02.104Z,53.61
2022-10-02T13:04:03.600Z,52.65
2022-10-02T13:06:51.483Z,52.54
2022-10-02T13:09:30.283Z,52.15
2022-10-02T13:12:18.048Z,50.87
2022-10-02T13:15:12.599Z,52.77
2022-10-02T13:17:46.338Z,51.82
2022-10-02T13:20:28.288Z,52.22
2022-10-02T13:23:06.181Z,52.13
2022-10-02T13:25:47.983Z,51.96
2022-10-02T13:28:31.874Z,51.10
2022-10-02T13:31:14.140Z,51.79
2022-10-02T13:34:05.497Z,51.74
2022-10-02T13:36:49.428Z,51.63
2022-10-02T13:39:34.043Z,51.29
2022-10-02T13:42:18.169Z,52.06
2022-10-02T13:44:53.955Z,52.34
2022-10-02T13:47:41.064Z,52.45
2022-10-02T13:50:23.365Z,51.88
2022-10-02T13:53:04.504Z,52.24
2022-10-02T13:55:39.313Z,52.32
2022-10-02T13:58:40.008Z,54.16
2022-10-02T14:01:20.025Z,54.39
2022-10-02T14:04:02.099Z,54.90
2022-10-02T14:06:36.814Z,54.75
2022-10-02T14:09:16.655Z,54.37
2022-10-02T14:12:05.236Z,53.61
2022-10-02T14:14:55.272Z,53.32
2022-10-02T14:17:32.682Z,51.30
2022-10-02T14:20:22.587Z,51.07
2022-10-02T14:23:13.453Z,52.18
2022-10-02T14:25:55.100Z,51.57
2022-10-02T14:28:31.888Z,54.02
2022-10-02T14:31:23.301Z,60.78
2022-10-02T14:34:23.268Z,62.46
2022-10-02T14:37:02.241Z,61.48
2022-10-02T14:39:35.746Z,63.05
2022-10-02T14:42:25.904Z,61.80
2022-10-02T14:45:29.712Z,61.63
2022-10-02T14:48:18.185Z,61.87
2022-10-02T14:51:02.922Z,61.19
2022-10-02T14:54:06.987Z,61.11
2022-10-02T14:57:02.247Z,61.13
2022-10-02T14:59:47.795Z,61.24
2022-10-02T15:02:30.345Z,61.58
2022-10-02T15:05:13.023Z,61.42
2022-10-02T15:07:42.250Z,62.60
2022-10-02T15:10:17.888Z,66.10
2022-10-02T15:12:52.186Z,66.13
2022-10-02T15:15:28.547Z,66.04
2022-10-02T15:18:20.181Z,64.53
2022-10-02T15:21:00.691Z,65.36
2022-10-02T15:23:44.447Z,66.09
2022-10-02T15:26:27.901Z,64.96
2022-10-02T15:29:04.498Z,64.93
2022-10-02T15:31:41.040Z,65.54
2022-10-02T15:34:23.922Z,65.06
2022-10-02T15:37:07.611Z,65.11
2022-10-02T15:40:06.185Z,65.03
2022-10-02T15:42:55.081Z,65.32
2022-10-02T15:45:57.594Z,64.46
2022-10-02T15:48:48.977Z,64.92
2022-10-02T15:51:39.329Z,64.59
2022-10-02T15:54:22.648Z,63.64
2022-10-02T15:57:18.210Z,64.21
2022-10-02T16:00:02.293Z,64.44
2022-10-02T16:03:06.254Z,64.69
2022-10-02T16:05:51.343Z,64.69
2022-10-02T16:08:47.041Z,65.72
2022-10-02T16:11:42.489Z,64.73
2022-10-02T16:14:15.053Z,64.21
2022-10-02T16:17:07.580Z,64.48
2022-10-02T16:19:54.223Z,65.27
2022-10-02T16:22:38.575Z,66.06
2022-10-02T16:25:25.610Z,66.45
2022-10-02T16:28:09.214Z,68.45
2022-10-02T16:31:24.034Z,68.40
2022-10-02T16:34:02.303Z,67.89
2022-10-02T16:36:49.031Z,67.02
2022-10-02T16:39:34.280Z,67.12
2022-10-02T16:42:05.136Z,67.12
2022-10-02T16:44:57.993Z,67.34
2022-10-02T16:47:30.607Z,66.88
2022-10-02T16:50:03.601Z,67.29
2022-10-02T16:52:39.068Z,68.15
2022-10-02T16:55:20.432Z,68.02
2022-10-02T16:57:58.111Z,67.11
2022-10-02T17:00:32.330Z,67.25
2022-10-02T17:03:10.037Z,66.62
2022-10-02T17:05:47.799Z,67.47
2022-10-02T17:08:25.204Z,67.35
2022-10-02T17:11:07.042Z,67.00
2022-10-02T17:13:47.020Z,66.37
2022-10-02T17:16:21.757Z,66.39
2022-10-02T17:18:55.798Z,66.47
2022-10-02T17:21:30.244Z,66.92
2022-10-02T17:24:22.477Z,68.58
2022-10-02T17:26:57.955Z,69.39
2022-10-02T17:29:33.369Z,70.14
2022-10-02T17:32:03.576Z,69.56
2022-10-02T17:34:33.707Z,69.37
2022-10-02T17:37:24.029Z,68.52
2022-10-02T17:40:06.165Z,68.00
2022-10-02T17:42:45.599Z,67.66
2022-10-02T17:45:26.686Z,68.98
2022-10-02T17:48:11.041Z,69.70
2022-10-02T17:50:53.799Z,69.88
2022-10-02T17:54:04.765Z,69.82
2022-10-02T17:56:51.970Z,69.97
2022-10-02T17:59:37.200Z,68.84
2022-10-02T18:02:19.726Z,68.14
2022-10-02T18:05:16.205Z,67.74
2022-10-02T18:08:01.914Z,67.46
2022-10-02T18:10:39.406Z,67.72
2022-10-02T18:13:39.687Z,67.26
2022-10-02T18:16:22.702Z,67.40
2022-10-02T18:19:23.939Z,67.17
2022-10-02T18:22:24.193Z,67.21
2022-10-02T18:25:40.230Z,67.49
2022-10-02T18:28:23.301Z,66.66
2022-10-02T18:31:04.001Z,66.64
2022-10-02T18:33:46.072Z,66.98
2022-10-02T18:36:26.096Z,67.51
2022-10-02T18:39:07.267Z,67.59
2022-10-02T18:42:05.106Z,66.64
2022-10-02T18:44:49.684Z,66.72
2022-10-02T18:47:34.197Z,67.31
2022-10-02T18:50:20.934Z,67.00
2022-10-02T18:53:04.403Z,67.02
2022-10-02T18:56:03.468Z,67.61
2022-10-02T18:58:44.560Z,66.78
2022-10-02T19:01:36.838Z,66.75
2022-10-02T19:04:30.211Z,67.04
2022-10-02T19:07:07.254Z,66.80
2022-10-02T19:09:35.331Z,66.57
2022-10-02T19:12:16.479Z,66.35
2022-10-02T19:14:47.019Z,67.04
2022-10-02T19:17:17.040Z,67.30
2022-10-02T19:19:45.677Z,68.31
2022-10-02T19:22:20.032Z,68.68
2022-10-02T19:24:50.791Z,67.69
2022-10-02T19:27:26.646Z,68.89
2022-10-02T19:29:57.811Z,69.47
2022-10-02T19:32:30.638Z,70.62
2022-10-02T19:35:03.963Z,70.03
2022-10-02T19:37:33.285Z,70.80
2022-10-02T19:40:04.643Z,70.86
2022-10-02T19:42:45.512Z,70.75
2022-10-02T19:45:25.448Z,71.51
2022-10-02T19:47:57.083Z,71.71
2022-10-02T19:50:33.669Z,70.35
2022-10-02T19:53:06.948Z,70.76
2022-10-02T19:55:40.477Z,71.44
2022-10-02T19:58:18.300Z,71.57
2022-10-02T20:00:46.340Z,69.93
2022-10-02T20:03:19.523Z,69.68
2022-10-02T20:05:50.591Z,70.40
2022-10-02T20:08:23.159Z,69.81
2022-10-02T20:10:59.985Z,69.61
2022-10-02T20:13:37.501Z,69.64
2022-10-02T20:16:31.975Z,69.83
2022-10-02T20:19:00.842Z,69.80
2022-10-02T20:21:39.469Z,69.97
2022-10-02T20:24:17.180Z,70.65
2022-10-02T20:26:47.723Z,69.68
2022-10-02T20:29:20.292Z,69.81
2022-10-02T20:31:51.622Z,70.67
2022-10-02T20:34:27.840Z,71.04
2022-10-02T20:37:02.498Z,71.02
2022-10-02T20:39:36.869Z,71.05
2022-10-02T20:42:11.428Z,70.45
2022-10-02T20:44:40.999Z,70.79
2022-10-02T20:47:32.704Z,69.86
2022-10-02T20:50:33.213Z,70.58
2022-10-02T20:53:34.255Z,71.24
2022-10-02T20:56:11.602Z,70.92
2022-10-02T20:59:05.025Z,70.33
2022-10-02T21:01:42.000Z,70.60
2022-10-02T21:04:40.146Z,70.32
2022-10-02T21:07:21.978Z,70.72
2022-10-02T21:10:16.725Z,70.31
2022-10-02T21:13:09.500Z,69.86
2022-10-02T21:15:55.822Z,69.76
2022-10-02T21:19:00.056Z,70.12
2022-10-02T21:21:56.502Z,70.42
2022-10-02T21:24:42.915Z,71.23
2022-10-02T21:27:49.019Z,71.71
2022-10-02T21:30:18.897Z,71.14
2022-10-02T21:33:03.992Z,71.03
2022-10-02T21:35:50.324Z,70.65
2022-10-02T21:38:47.262Z,70.80
2022-10-02T21:41:48.521Z,71.04
2022-10-02T21:45:00.391Z,70.57
2022-10-02T21:48:19.126Z,71.19
2022-10-02T21:51:28.467Z,70.44
2022-10-02T21:54:34.747Z,70.95
2022-10-02T21:57:38.056Z,70.34
2022-10-02T22:00:13.725Z,70.08
2022-10-02T22:03:21.237Z,70.28
2022-10-02T22:06:37.559Z,69.89
2022-10-02T22:09:26.919Z,69.87
2022-10-02T22:12:08.999Z,69.83
2022-10-02T22:14:40.921Z,70.15
2022-10-02T22:17:23.362Z,70.90
2022-10-02T22:20:12.536Z,71.66
2022-10-02T22:22:59.359Z,70.45
2022-10-02T22:25:46.383Z,71.32
2022-10-02T22:28:35.013Z,70.36
2022-10-02T22:31:54.874Z,71.14
2022-10-02T22:34:39.493Z,70.86
2022-10-02T22:37:25.056Z,71.22
2022-10-02T22:40:03.280Z,71.35
2022-10-02T22:42:40.672Z,71.53
2022-10-02T22:45:19.005Z,72.11
2022-10-02T22:47:56.459Z,71.40
2022-10-02T22:50:37.227Z,72.10
2022-10-02T22:53:13.615Z,71.23
2022-10-02T22:55:49.822Z,71.76
2022-10-02T22:58:24.272Z,70.95
2022-10-02T23:00:59.877Z,72.15
2022-10-02T23:03:35.040Z,71.92
2022-10-02T23:06:07.807Z,70.84
2022-10-02T23:08:44.887Z,71.96
2022-10-02T23:11:19.061Z,71.73
2022-10-02T23:13:52.770Z,72.00
2022-10-02T23:16:27.767Z,72.30
2022-10-02T23:19:01.843Z,71.92
2022-10-02T23:21:44.582Z,72.16
2022-10-02T23:24:23.412Z,71.03
2022-10-02T23:26:56.608Z,70.89
2022-10-02T23:29:39.370Z,71.05
2022-10-02T23:32:20.443Z,71.11
2022-10-02T23:34:57.288Z,71.10
2022-10-02T23:37:32.320Z,70.85
2022-10-02T23:40:16.014Z,71.25
2022-10-02T23:42:50.483Z,70.86
2022-10-02T23:45:26.110Z,70.21
2022-10-02T23:48:00.181Z,71.01
2022-10-02T23:50:38.729Z,70.36
2022-10-02T23:53:40.446Z,70.40
2022-10-02T23:56:27.849Z,71.32
2022-10-02T23:59:09.589Z,71.44
